Flight Track Log - Related Links

Times and Time Zones

All times are in EDT time to prevent confusion due to time zone crossing. See the ACA860 flight status page for this flight to view local times or setup timezone preferences in your user account.

Time Position Orientation Groundspeed Altitude Reporting Facility
EDT Latitude Longitude Course Direction KTS MPH feet Rate Location/Type
Fri 10:51:52 PM 44.8333 -63.5167 59° Northeast 160 184 2,500  Level Moncton Center
Fri 10:52:52 PM 44.8000 -63.5000 160° South 230 265 4,700 2,450 Climbing Moncton Center
Fri 10:53:52 PM 44.7833 -63.3833 101° East 290 334 7,400 2,950 Climbing Moncton Center
Fri 10:54:52 PM 44.8500 -63.2833 47° Northeast 330 380 10,600 2,600 Climbing Moncton Center
Fri 10:55:00 PM 45.1265 -62.8518 57° Northeast  Level FlightAware Approximate
Fri 10:55:52 PM 44.9167 -63.2000 42° Northeast 370 426 12,600  Level Moncton Center
Fri 10:56:00 PM 45.1824 -62.6853 55° Northeast  Level FlightAware Approximate
Fri 10:56:52 PM 45.0000 -63.0667 49° Northeast 420 483 15,700  Level Moncton Center
Fri 10:57:00 PM 45.2499 -62.5238 59° Northeast  Level FlightAware Approximate
Fri 10:57:52 PM 45.0833 -62.9333 48° Northeast 430 495 18,800  Level Moncton Center
Fri 10:58:52 PM 45.1500 -62.7833 58° Northeast 450 518 21,300 2,650 Climbing Moncton Center
Fri 10:59:52 PM 45.2167 -62.6167 60° Northeast 470 541 24,100 2,500 Climbing Moncton Center
Fri 11:00:52 PM 45.2667 -62.4500 67° East 480 552 26,300 1,486 Climbing Moncton Center
Fri 11:07:12 PM 45.6890 -61.3610 67° East 495 570 35,000 1,228 Climbing FlightAware ADS-B
Fri 11:07:57 PM 45.7360 -61.2270 63° Northeast 493 567 35,000  Level FlightAware ADS-B
Fri 11:08:37 PM 45.7780 -61.1110 63° Northeast 492 566 35,000  Level FlightAware ADS-B
Fri 11:09:17 PM 45.8190 -60.9980 62° Northeast 491 565 35,000  Level FlightAware ADS-B
Fri 11:10:02 PM 45.8660 -60.8680 63° Northeast 489 563 35,000  Level FlightAware ADS-B
Fri 11:10:42 PM 45.9060 -60.7540 63° Northeast 489 563 35,000  Level FlightAware ADS-B
Fri 11:11:22 PM 45.9470 -60.6400 63° Northeast 486 559 35,000  Level FlightAware ADS-B
Fri 11:12:07 PM 45.9940 -60.5060 63° Northeast 487 560 35,000  Level FlightAware ADS-B
Fri 11:12:47 PM 46.0350 -60.3900 63° Northeast 487 560 35,000  Level FlightAware ADS-B
Fri 11:13:27 PM 46.0750 -60.2750 63° Northeast 486 559 35,000  Level FlightAware ADS-B
Fri 11:14:12 PM 46.1180 -60.1500 64° Northeast 487 560 35,000  Level FlightAware ADS-B
Fri 11:14:57 PM 46.1720 -60.0180 59° Northeast 487 560 35,000  Level FlightAware ADS-B
Fri 11:15:32 PM 46.2180 -59.9320 52° Northeast 487 560 35,000  Level FlightAware ADS-B
Fri 11:16:17 PM 46.2820 -59.8150 52° Northeast 488 562 35,000  Level FlightAware ADS-B
Fri 11:17:02 PM 46.3440 -59.7000 52° Northeast 488 562 35,000  Level FlightAware ADS-B
Fri 11:17:42 PM 46.3980 -59.6000 52° Northeast 487 560 35,000  Level FlightAware ADS-B
Fri 11:18:27 PM 46.4620 -59.4820 52° Northeast 488 562 35,000  Level FlightAware ADS-B
Fri 11:19:07 PM 46.5180 -59.3780 52° Northeast 488 562 35,000  Level FlightAware ADS-B
Fri 11:19:47 PM 46.5730 -59.2750 52° Northeast 487 560 35,000  Level FlightAware ADS-B
Fri 11:20:32 PM 46.6340 -59.1620 52° Northeast 488 562 35,000  Level FlightAware ADS-B
Fri 11:21:12 PM 46.6890 -59.0570 53° Northeast 488 562 35,000  Level FlightAware ADS-B
Fri 11:21:57 PM 46.7530 -58.9380 52° Northeast 487 560 35,000  Level FlightAware ADS-B
Fri 11:22:37 PM 46.8080 -58.8340 52° Northeast 488 562 35,000  Level FlightAware ADS-B
Fri 11:23:17 PM 46.8640 -58.7280 52° Northeast 489 563 35,000  Level FlightAware ADS-B
Fri 11:24:02 PM 46.9230 -58.6140 53° Northeast 490 564 35,000  Level FlightAware ADS-B
Fri 11:24:42 PM 46.9780 -58.5090 52° Northeast 491 565 35,000  Level FlightAware ADS-B
Fri 11:25:37 PM 47.0520 -58.3680 52° Northeast 491 565 35,000  Level FlightAware ADS-B
Fri 11:26:17 PM 47.0990 -58.2790 52° Northeast 491 565 35,000  Level FlightAware ADS-B
Fri 11:26:57 PM 47.1470 -58.1890 52° Northeast 491 565 35,000  Level FlightAware ADS-B
Fri 11:27:37 PM 47.1940 -58.1000 52° Northeast 491 565 35,000  Level FlightAware ADS-B
Fri 11:28:27 PM 47.2540 -57.9880 52° Northeast 491 565 35,000  Level FlightAware ADS-B
Fri 11:29:07 PM 47.3010 -57.8980 52° Northeast 491 565 35,000  Level FlightAware ADS-B
Fri 11:29:47 PM 47.3490 -57.8080 52° Northeast 491 565 35,000  Level FlightAware ADS-B
Fri 11:30:27 PM 47.3960 -57.7180 52° Northeast 491 565 35,000  Level FlightAware ADS-B
Fri 11:31:07 PM 47.4440 -57.6290 51° Northeast 491 565 35,000  Level FlightAware ADS-B
Fri 11:31:57 PM 47.5030 -57.5160 52° Northeast 491 565 35,000  Level FlightAware ADS-B
Fri 11:32:37 PM 47.6180 -57.2220 60° Northeast 495 570 35,000  Level FlightAware ADS-B
Fri 11:33:27 PM 47.6710 -57.0870 60° Northeast 495 570 35,000  Level FlightAware ADS-B
Fri 11:34:12 PM 47.7230 -56.9460 61° Northeast 493 567 35,000  Level FlightAware ADS-B
Fri 11:34:57 PM 47.7750 -56.8070 61° Northeast 491 565 35,000  Level FlightAware ADS-B
Fri 11:35:37 PM 47.8190 -56.6880 61° Northeast 490 564 35,000  Level FlightAware ADS-B
Fri 11:36:22 PM 47.8680 -56.5570 61° Northeast 491 565 35,000  Level FlightAware ADS-B
Fri 11:37:02 PM 47.9120 -56.4390 61° Northeast 491 565 35,000  Level FlightAware ADS-B
Fri 11:37:42 PM 47.9530 -56.3270 61° Northeast 490 564 35,000  Level FlightAware ADS-B
Fri 11:38:27 PM 48.0050 -56.1850 61° Northeast 492 566 35,000  Level FlightAware ADS-B
Fri 11:39:07 PM 48.0450 -56.0740 62° Northeast 492 566 35,000  Level FlightAware ADS-B
Fri 11:39:52 PM 48.0910 -55.9470 61° Northeast 488 562 35,000  Level FlightAware ADS-B
Fri 11:40:27 PM 48.1340 -55.8300 61° Northeast 491 565 35,000  Level FlightAware ADS-B
Fri 11:41:12 PM 48.1830 -55.6930 62° Northeast 492 566 35,000  Level FlightAware ADS-B
Fri 11:41:52 PM 48.2240 -55.5760 62° Northeast 493 567 35,000  Level FlightAware ADS-B
Fri 11:42:32 PM 48.2660 -55.4590 62° Northeast 493 567 35,000  Level FlightAware ADS-B
Fri 11:43:12 PM 48.3110 -55.3340 62° Northeast 493 567 35,000  Level FlightAware ADS-B
Fri 11:43:57 PM 48.3590 -55.1960 62° Northeast 493 567 35,000  Level FlightAware ADS-B
Fri 11:44:37 PM 48.4020 -55.0730 62° Northeast 494 568 35,000  Level FlightAware ADS-B
Fri 11:45:22 PM 48.4470 -54.9430 62° Northeast 494 568 35,000  Level FlightAware ADS-B
Fri 11:46:02 PM 48.4900 -54.8190 62° Northeast 494 568 35,000  Level FlightAware ADS-B
Fri 11:46:42 PM 48.5330 -54.6960 62° Northeast 494 568 35,000  Level FlightAware ADS-B
Fri 11:47:27 PM 48.5780 -54.5660 62° Northeast 495 570 35,000  Level FlightAware ADS-B
Fri 11:48:07 PM 48.6220 -54.4370 63° Northeast 495 570 35,000  Level FlightAware ADS-B
Fri 11:48:57 PM 48.6760 -54.2800 62° Northeast 495 570 35,000 133 Level FlightAware ADS-B
Fri 11:49:37 PM 48.7170 -54.1570 63° Northeast 495 570 35,200 353 Climbing FlightAware ADS-B
Fri 11:50:22 PM 48.7640 -54.0160 63° Northeast 496 571 35,500 494 Climbing FlightAware ADS-B
Fri 11:51:02 PM 48.8050 -53.8940 63° Northeast 496 571 35,900 353 Climbing FlightAware ADS-B
Fri 11:51:47 PM 48.8520 -53.7520 63° Northeast 496 571 36,000 48 Climbing FlightAware ADS-B
Fri 11:53:07 PM 48.9300 -53.5180 63° Northeast 488 562 36,000  Level FlightAware ADS-B
Fri 11:56:27 PM 49.1340 -52.8870 64° Northeast 493 567 36,000  Level FlightAware ADS-B
Fri 11:57:07 PM 49.1720 -52.7660 64° Northeast 494 568 36,000  Level FlightAware ADS-B
Fri 11:57:47 PM 49.2140 -52.6350 64° Northeast 496 571 36,000  Level FlightAware ADS-B
Fri 11:59:27 PM 49.3090 -52.3290 64° Northeast 494 568 36,000  Level FlightAware ADS-B
Sat 12:00:07 AM 49.3420 -52.2200 65° Northeast 494 568 36,000  Level FlightAware ADS-B
Sat 12:00:47 AM 49.3890 -52.0770 63° Northeast 496 571 36,000  Level FlightAware ADS-B
Sat 12:01:32 AM 49.4360 -51.9280 64° Northeast 500 575 36,000  Level FlightAware ADS-B
Sat 12:02:07 AM 49.4700 -51.8150 65° Northeast 500 575 36,000  Level FlightAware ADS-B
Sat 12:03:02 AM 49.5240 -51.6390 65° Northeast 501 577 36,000  Level FlightAware ADS-B
Sat 12:03:42 AM 49.5640 -51.5080 65° Northeast 502 578 36,000  Level FlightAware ADS-B
Sat 12:04:22 AM 49.6030 -51.3800 65° Northeast 503 579 36,000  Level FlightAware ADS-B
Sat 12:05:07 AM 49.6470 -51.2300 66° East 503 579 36,000  Level FlightAware ADS-B
Sat 12:05:47 AM 49.6850 -51.1020 65° Northeast 503 579 36,000  Level FlightAware ADS-B
Sat 12:06:22 AM 49.7170 -50.9970 65° Northeast 503 579 36,000  Level FlightAware ADS-B
Sat 12:07:12 AM 49.7590 -50.8580 65° Northeast 503 579 36,000  Level FlightAware ADS-B
Sat 12:07:52 AM 49.7920 -50.7470 65° Northeast 503 579 36,000  Level FlightAware ADS-B
Sat 12:08:32 AM 49.8250 -50.6360 65° Northeast 503 579 36,000  Level FlightAware ADS-B
Sat 12:09:12 AM 49.8590 -50.5250 65° Northeast 503 579 36,000  Level FlightAware ADS-B
Sat 12:10:02 AM 49.9010 -50.3860 65° Northeast 503 579 36,000  Level FlightAware ADS-B
Sat 12:10:42 AM 49.9340 -50.2750 65° Northeast 503 579 36,000  Level FlightAware ADS-B
Sat 12:11:22 AM 49.9670 -50.1630 65° Northeast 503 579 36,000  Level FlightAware ADS-B
Sat 12:12:02 AM 50.0010 -50.0520 64° Northeast 503 579 36,000  Level FlightAware ADS-B
Sat 12:12:42 AM 50.0340 -49.9400 65° Northeast 503 579 36,000  Level FlightAware ADS-B
Sat 12:13:32 AM 50.0760 -49.8000 65° Northeast 503 579 36,000  Level FlightAware ADS-B
Sat 12:13:59 AM 50.0000 -50.0000 77° East 503 579 36,000  Level ETMS Enhanced Traffic Management System
Sat 12:14:12 AM 50.1100 -49.6890 64° Northeast 503 579 36,000  Level FlightAware ADS-B
Sat 12:14:37 AM 50.0667 -49.2667 77° East 510 587 36,000  Level Gander Center
Sat 12:14:42 AM 50.1350 -49.6050 65° Northeast 503 579 36,000  Level FlightAware ADS-B
Sat 12:15:11 AM 50.0833 -49.1333 79° East 510 587 36,000  Level Gander Center
Sat 12:15:22 AM 50.1680 -49.4930 65° Northeast 503 579 36,000  Level FlightAware ADS-B
Sat 12:16:11 AM 50.1000 -48.9167 83° East 510 587 36,000  Level Gander Center
Sat 12:17:11 AM 50.1333 -48.7000 76° East 500 575 36,000  Level Gander Center
Sat 12:18:11 AM 50.1667 -48.4833 76° East 500 575 36,000  Level Gander Center
Sat 12:19:11 AM 50.1833 -48.2833 83° East 500 575 36,000  Level Gander Center
Sat 12:19:37 AM 50.2167 -48.1667 66° East 500 575 36,000  Level Gander Center
Sat 12:20:11 AM 50.2333 -48.0667 75° East 490 564 36,000  Level Gander Center
Sat 12:21:11 AM 50.2500 -47.8500 83° East 500 575 36,000  Level Gander Center
Sat 12:23:00 AM 50.2869 -47.5658 78° East  Level FlightAware Approximate
Sat 12:30:00 AM 50.4629 -46.1209 79° East  Level FlightAware Approximate
Sat 12:31:00 AM 50.4866 -45.9136 80° East  Level FlightAware Approximate
Sat 12:32:00 AM 50.5099 -45.7062 80° East  Level FlightAware Approximate
Sat 12:33:00 AM 50.5328 -45.4985 80° East  Level FlightAware Approximate
Sat 12:34:00 AM 50.5554 -45.2906 80° East  Level FlightAware Approximate
Sat 12:35:00 AM 50.5776 -45.0825 80° East  Level FlightAware Approximate
Sat 12:36:00 AM 50.5994 -44.8743 81° East  Level FlightAware Approximate
Sat 12:37:00 AM 50.6209 -44.6658 81° East  Level FlightAware Approximate
Sat 12:38:00 AM 50.6419 -44.4572 81° East  Level FlightAware Approximate
Sat 12:39:00 AM 50.6627 -44.2483 81° East  Level FlightAware Approximate
Sat 12:40:00 AM 50.6830 -44.0393 81° East  Level FlightAware Approximate
Sat 12:41:00 AM 50.7030 -43.8301 81° East  Level FlightAware Approximate
Sat 12:42:00 AM 50.7225 -43.6207 82° East  Level FlightAware Approximate
Sat 12:43:00 AM 50.7418 -43.4112 82° East  Level FlightAware Approximate
Sat 12:44:00 AM 50.7606 -43.2015 82° East  Level FlightAware Approximate
Sat 12:45:00 AM 50.7791 -42.9916 82° East  Level FlightAware Approximate
Sat 12:46:00 AM 50.7971 -42.7815 82° East  Level FlightAware Approximate
Sat 12:47:00 AM 50.8148 -42.5713 82° East  Level FlightAware Approximate
Sat 12:48:00 AM 50.8322 -42.3610 82° East  Level FlightAware Approximate
Sat 12:49:00 AM 50.8491 -42.1504 83° East  Level FlightAware Approximate
Sat 12:50:00 AM 50.8657 -41.9398 83° East  Level FlightAware Approximate
Sat 12:51:00 AM 50.8819 -41.7290 83° East  Level FlightAware Approximate
Sat 12:52:00 AM 50.8977 -41.5180 83° East  Level FlightAware Approximate
Sat 12:53:00 AM 50.9131 -41.3069 83° East  Level FlightAware Approximate
Sat 12:54:00 AM 50.9282 -41.0956 83° East  Level FlightAware Approximate
Sat 12:55:00 AM 50.9428 -40.8843 84° East  Level FlightAware Approximate
Sat 12:56:00 AM 50.9571 -40.6727 84° East  Level FlightAware Approximate
Sat 12:57:00 AM 50.9711 -40.4611 84° East  Level FlightAware Approximate
Sat 12:58:00 AM 50.9846 -40.2493 84° East  Level FlightAware Approximate
Sat 12:59:00 AM 50.9977 -40.0374 84° East  Level FlightAware Approximate
Sat 01:00:00 AM 51.0247 -39.8292 77° East  Level FlightAware Approximate
Sat 01:01:00 AM 51.0544 -39.6213 77° East  Level FlightAware Approximate
Sat 01:02:00 AM 51.0838 -39.4132 77° East  Level FlightAware Approximate
Sat 01:03:00 AM 51.1127 -39.2049 77° East  Level FlightAware Approximate
Sat 01:03:00 AM 51.0000 -40.0000 77° East 503 579 36,000  Level ETMS Enhanced Traffic Management System
Sat 01:04:00 AM 51.1413 -38.9963 78° East  Level FlightAware Approximate
Sat 01:05:00 AM 51.1696 -38.7874 78° East  Level FlightAware Approximate
Sat 01:06:00 AM 51.1974 -38.5783 78° East  Level FlightAware Approximate
Sat 01:07:00 AM 51.2249 -38.3689 78° East  Level FlightAware Approximate
Sat 01:08:00 AM 51.2520 -38.1592 78° East  Level FlightAware Approximate
Sat 01:09:00 AM 51.3225 -37.5988 79° East 503 579 36,000  Level FlightAware Transoceanic
Sat 01:10:00 AM 51.3493 -37.3789 79° East 503 579 36,000  Level FlightAware Transoceanic
Sat 01:11:00 AM 51.3758 -37.1587 79° East 503 579 36,000  Level FlightAware Transoceanic
Sat 01:12:00 AM 51.4018 -36.9383 79° East 503 579 36,000  Level FlightAware Transoceanic
Sat 01:13:00 AM 51.4274 -36.7176 80° East 503 579 36,000  Level FlightAware Transoceanic
Sat 01:14:00 AM 51.4527 -36.4967 80° East 503 579 36,000  Level FlightAware Transoceanic
Sat 01:15:00 AM 51.4775 -36.2755 80° East 503 579 36,000  Level FlightAware Transoceanic
Sat 01:16:00 AM 51.5018 -36.0541 80° East 503 579 36,000  Level FlightAware Transoceanic
Sat 01:17:00 AM 51.5258 -35.8325 80° East 503 579 36,000  Level FlightAware Transoceanic
Sat 01:18:00 AM 51.5493 -35.6106 80° East 503 579 36,000  Level FlightAware Transoceanic
Sat 01:19:00 AM 51.5725 -35.3885 81° East 503 579 36,000  Level FlightAware Transoceanic
Sat 01:20:00 AM 51.5952 -35.1662 81° East 503 579 36,000  Level FlightAware Transoceanic
Sat 01:21:00 AM 51.6175 -34.9437 81° East 503 579 36,000  Level FlightAware Transoceanic
Sat 01:22:00 AM 51.6393 -34.7210 81° East 503 579 36,000  Level FlightAware Transoceanic
Sat 01:23:00 AM 51.6608 -34.4980 81° East 503 579 36,000  Level FlightAware Transoceanic
Sat 01:24:00 AM 51.6818 -34.2748 81° East 503 579 36,000  Level FlightAware Transoceanic
Sat 01:25:00 AM 51.7024 -34.0514 82° East 503 579 36,000  Level FlightAware Transoceanic
Sat 01:26:00 AM 51.7225 -33.8278 82° East 503 579 36,000  Level FlightAware Transoceanic
Sat 01:27:00 AM 51.7423 -33.6041 82° East 503 579 36,000  Level FlightAware Transoceanic
Sat 01:28:00 AM 51.7616 -33.3801 82° East 503 579 36,000  Level FlightAware Transoceanic
Sat 01:29:00 AM 51.7805 -33.1559 82° East 503 579 36,000  Level FlightAware Transoceanic
Sat 01:30:00 AM 51.7990 -32.9316 83° East 503 579 36,000  Level FlightAware Transoceanic
Sat 01:31:00 AM 51.8170 -32.7071 83° East 503 579 36,000  Level FlightAware Transoceanic
Sat 01:32:00 AM 51.8346 -32.4823 83° East 503 579 36,000  Level FlightAware Transoceanic
Sat 01:33:00 AM 51.8518 -32.2575 83° East 503 579 36,000  Level FlightAware Transoceanic
Sat 01:34:00 AM 51.8686 -32.0324 83° East 503 579 36,000  Level FlightAware Transoceanic
Sat 01:35:00 AM 51.8849 -31.8072 83° East 503 579 36,000  Level FlightAware Transoceanic
Sat 01:36:00 AM 51.9008 -31.5818 84° East 503 579 36,000  Level FlightAware Transoceanic
Sat 01:37:00 AM 51.9163 -31.3563 84° East 503 579 36,000  Level FlightAware Transoceanic
Sat 01:38:00 AM 51.9313 -31.1306 84° East 503 579 36,000  Level FlightAware Transoceanic
Sat 01:39:00 AM 51.9459 -30.9048 84° East 503 579 36,000  Level FlightAware Transoceanic
Sat 01:40:00 AM 51.9601 -30.6788 84° East 503 579 36,000  Level FlightAware Transoceanic
Sat 01:41:00 AM 51.9738 -30.4527 84° East 503 579 36,000  Level FlightAware Transoceanic
Sat 01:42:00 AM 51.9871 -30.2264 85° East 503 579 36,000  Level FlightAware Transoceanic
Sat 01:43:00 AM 51.9992 -30.0134 85° East  Level FlightAware Approximate
Sat 01:44:00 AM 52.0110 -29.8002 85° East  Level FlightAware Approximate
Sat 01:45:00 AM 52.0078 -29.8133 86° East  Level FlightAware Approximate
Sat 01:45:00 AM 52.0000 -30.0000 86° East 515 593 36,000  Level ETMS Enhanced Traffic Management System
Sat 01:46:00 AM 52.0163 -29.5997 86° East  Level FlightAware Approximate
Sat 01:47:00 AM 52.0244 -29.3861 86° East  Level FlightAware Approximate
Sat 01:48:00 AM 52.0322 -29.1724 87° East  Level FlightAware Approximate
Sat 01:49:00 AM 52.0396 -28.9586 87° East  Level FlightAware Approximate
Sat 01:50:00 AM 52.0466 -28.7447 87° East  Level FlightAware Approximate
Sat 01:51:00 AM 52.0577 -28.3750 87° East 515 593 36,000  Level FlightAware Transoceanic
Sat 01:52:00 AM 52.0641 -28.1425 88° East 515 593 36,000  Level FlightAware Transoceanic
Sat 01:53:00 AM 52.0701 -27.9100 88° East 515 593 36,000  Level FlightAware Transoceanic
Sat 01:54:00 AM 52.0756 -27.6774 88° East 515 593 36,000  Level FlightAware Transoceanic
Sat 01:55:00 AM 52.0806 -27.4448 88° East 515 593 36,000  Level FlightAware Transoceanic
Sat 01:56:00 AM 52.0852 -27.2121 88° East 515 593 36,000  Level FlightAware Transoceanic
Sat 01:57:00 AM 52.0894 -26.9794 88° East 515 593 36,000  Level FlightAware Transoceanic
Sat 01:58:00 AM 52.0930 -26.7466 89° East 515 593 36,000  Level FlightAware Transoceanic
Sat 01:59:00 AM 52.0962 -26.5138 89° East 515 593 36,000  Level FlightAware Transoceanic
Sat 02:00:00 AM 52.0990 -26.2810 89° East 515 593 36,000  Level FlightAware Transoceanic
Sat 02:01:00 AM 52.1013 -26.0481 89° East 515 593 36,000  Level FlightAware Transoceanic
Sat 02:02:00 AM 52.1031 -25.8152 89° East 515 593 36,000  Level FlightAware Transoceanic
Sat 02:03:00 AM 52.1045 -25.5823 90° East 515 593 36,000  Level FlightAware Transoceanic
Sat 02:04:00 AM 52.1054 -25.3494 90° East 515 593 36,000  Level FlightAware Transoceanic
Sat 02:05:00 AM 52.1059 -25.1165 90° East 515 593 36,000  Level FlightAware Transoceanic
Sat 02:06:00 AM 52.1059 -24.8835 90° East 515 593 36,000  Level FlightAware Transoceanic
Sat 02:07:00 AM 52.1054 -24.6506 90° East 515 593 36,000  Level FlightAware Transoceanic
Sat 02:08:00 AM 52.1045 -24.4177 90° East 515 593 36,000  Level FlightAware Transoceanic
Sat 02:09:00 AM 52.1031 -24.1848 91° East 515 593 36,000  Level FlightAware Transoceanic
Sat 02:10:00 AM 52.1013 -23.9519 91° East 515 593 36,000  Level FlightAware Transoceanic
Sat 02:11:00 AM 52.0990 -23.7190 91° East 515 593 36,000  Level FlightAware Transoceanic
Sat 02:12:00 AM 52.0962 -23.4862 91° East 515 593 36,000  Level FlightAware Transoceanic
Sat 02:13:00 AM 52.0930 -23.2534 91° East 515 593 36,000  Level FlightAware Transoceanic
Sat 02:14:00 AM 52.0894 -23.0206 92° East 515 593 36,000  Level FlightAware Transoceanic
Sat 02:15:00 AM 52.0852 -22.7879 92° East 515 593 36,000  Level FlightAware Transoceanic
Sat 02:16:00 AM 52.0806 -22.5552 92° East 515 593 36,000  Level FlightAware Transoceanic
Sat 02:17:00 AM 52.0756 -22.3226 92° East 515 593 36,000  Level FlightAware Transoceanic
Sat 02:18:00 AM 52.0701 -22.0900 92° East 515 593 36,000  Level FlightAware Transoceanic
Sat 02:19:00 AM 52.0641 -21.8575 92° East 515 593 36,000  Level FlightAware Transoceanic
Sat 02:20:00 AM 52.0577 -21.6250 93° East 515 593 36,000  Level FlightAware Transoceanic
Sat 02:21:00 AM 52.0508 -21.3926 93° East 515 593 36,000  Level FlightAware Transoceanic
Sat 02:22:00 AM 52.0435 -21.1603 93° East 515 593 36,000  Level FlightAware Transoceanic
Sat 02:23:00 AM 52.0357 -20.9281 93° East 515 593 36,000  Level FlightAware Transoceanic
Sat 02:24:00 AM 52.0275 -20.6959 93° East 515 593 36,000  Level FlightAware Transoceanic
Sat 02:25:00 AM 52.0188 -20.4639 94° East 515 593 36,000  Level FlightAware Transoceanic
Sat 02:26:00 AM 52.0096 -20.2319 94° East 515 593 36,000  Level FlightAware Transoceanic
Sat 02:27:00 AM 52.0008 -20.0190 94° East  Level FlightAware Approximate
Sat 02:28:00 AM 51.9916 -19.8063 94° East  Level FlightAware Approximate
Sat 02:29:00 AM 52.0064 -19.8252 87° East  Level FlightAware Approximate
Sat 02:30:00 AM 52.0138 -19.6122 87° East  Level FlightAware Approximate
Sat 02:31:00 AM 52.0209 -19.3992 87° East  Level FlightAware Approximate
Sat 02:32:00 AM 52.0275 -19.1860 87° East  Level FlightAware Approximate
Sat 02:33:00 AM 52.0338 -18.9729 87° East  Level FlightAware Approximate
Sat 02:34:00 AM 52.0397 -18.7596 87° East  Level FlightAware Approximate
Sat 02:35:00 AM 52.0452 -18.5463 88° East  Level FlightAware Approximate
Sat 02:36:00 AM 52.0504 -18.3330 88° East  Level FlightAware Approximate
Sat 02:37:00 AM 52.0551 -18.1196 88° East  Level FlightAware Approximate
Sat 02:38:00 AM 52.0594 -17.9061 88° East  Level FlightAware Approximate
Sat 02:39:00 AM 52.0634 -17.6927 88° East  Level FlightAware Approximate
Sat 02:40:00 AM 52.0670 -17.4792 88° East  Level FlightAware Approximate
Sat 02:41:00 AM 52.0705 -17.2656 88° East  Level FlightAware Approximate
Sat 02:42:00 AM 52.0735 -17.0520 89° East  Level FlightAware Approximate
Sat 02:43:00 AM 52.0762 -16.8385 89° East  Level FlightAware Approximate
Sat 02:44:00 AM 52.0785 -16.6248 89° East  Level FlightAware Approximate
Sat 02:45:00 AM 52.0804 -16.4112 89° East  Level FlightAware Approximate
Sat 02:46:00 AM 52.0820 -16.1975 89° East  Level FlightAware Approximate
Sat 02:47:00 AM 52.0831 -15.9839 89° East  Level FlightAware Approximate
Sat 02:48:00 AM 52.0838 -15.7702 90° East  Level FlightAware Approximate
Sat 02:49:00 AM 52.0842 -15.5565 90° East  Level FlightAware Approximate
Sat 02:50:00 AM 52.0842 -15.3428 90° East  Level FlightAware Approximate
Sat 02:51:00 AM 52.0838 -15.1292 90° East  Level FlightAware Approximate
Sat 02:52:00 AM 52.0832 -14.9155 90° East  Level FlightAware Approximate
Sat 02:53:00 AM 52.0825 -14.7018 90° East  Level FlightAware Approximate
Sat 02:54:00 AM 52.0814 -14.4882 90° East  Level FlightAware Approximate
Sat 02:55:00 AM 52.0799 -14.2745 91° East  Level FlightAware Approximate
Sat 02:56:00 AM 52.0780 -14.0609 91° East  Level FlightAware Approximate
Sat 02:57:00 AM 52.0758 -13.8472 91° East  Level FlightAware Approximate
Sat 02:58:00 AM 52.0731 -13.6337 91° East  Level FlightAware Approximate
Sat 02:59:00 AM 52.0701 -13.4201 91° East  Level FlightAware Approximate
Sat 03:00:00 AM 52.0667 -13.2065 91° East  Level FlightAware Approximate
Sat 03:01:00 AM 52.0629 -12.9930 92° East  Level FlightAware Approximate
Sat 03:02:00 AM 52.0587 -12.7796 92° East  Level FlightAware Approximate
Sat 03:03:00 AM 52.0542 -12.5662 92° East  Level FlightAware Approximate
Sat 03:04:00 AM 52.0492 -12.3528 92° East  Level FlightAware Approximate
Sat 03:05:00 AM 52.0439 -12.1395 92° East  Level FlightAware Approximate
Sat 03:06:00 AM 52.0382 -11.9262 92° East  Level FlightAware Approximate
Sat 03:07:00 AM 52.0321 -11.7130 93° East  Level FlightAware Approximate
Sat 03:08:00 AM 52.0256 -11.4998 93° East  Level FlightAware Approximate
Sat 03:08:47 AM 51.4210 -11.3590 93° East 483 556 36,000  Level FlightAware ADS-B
Sat 03:09:00 AM 52.0187 -11.2867 93° East  Level FlightAware Approximate
Sat 03:09:22 AM 51.4310 -11.2530 81° East 36,000  Level FlightAware ADS-B
Sat 03:10:07 AM 51.4460 -11.1000 81° East 481 554 36,000  Level FlightAware ADS-B
Sat 03:10:52 AM 51.4630 -10.9130 82° East 482 555 36,000  Level FlightAware ADS-B
Sat 03:11:37 AM 51.4760 -10.7730 81° East 482 555 36,000  Level FlightAware ADS-B
Sat 03:12:27 AM 51.4930 -10.5890 81° East 481 554 36,000  Level FlightAware ADS-B
Sat 03:13:12 AM 51.5060 -10.4440 82° East 481 554 36,000  Level FlightAware ADS-B
Sat 03:13:52 AM 51.5190 -10.2940 82° East 481 554 36,000  Level FlightAware ADS-B
Sat 03:14:37 AM 51.5330 -10.1340 82° East 482 555 36,000  Level FlightAware ADS-B
Sat 03:15:12 AM 51.5440 -10.0100 82° East 482 555 36,000  Level FlightAware ADS-B
Sat 03:16:12 AM 51.5620 -9.7940 82° East 483 556 36,000  Level FlightAware ADS-B
Sat 03:16:52 AM 51.5730 -9.6590 82° East 482 555 36,000  Level FlightAware ADS-B
Sat 03:18:37 AM 51.6030 -9.2740 83° East 480 552 36,000  Level FlightAware ADS-B
Sat 03:19:17 AM 51.6150 -9.1300 82° East 479 551 36,000  Level FlightAware ADS-B
Sat 03:19:57 AM 51.6260 -8.9890 83° East 478 550 36,000 -1,636 Level FlightAware ADS-B
Sat 03:20:12 AM 51.6257 -8.9384 83° East 446 513 34,500 -2,727 Descending FlightAware UK
Sat 03:20:30 AM 51.6304 -8.8751 83° East 446 513 34,500  Level FlightAware UK
Sat 03:20:48 AM 51.6352 -8.8118 83° East 446 513 34,500  Level FlightAware UK
Sat 03:21:06 AM 51.6399 -8.7488 83° East 444 511 34,500 2,647 Level FlightAware UK
Sat 03:21:22 AM 51.6470 -8.7020 83° East 475 547 36,000  Climbing FlightAware ADS-B
Sat 03:21:48 AM 51.6509 -8.6014 83° East 444 511 34,500  Descending FlightAware UK
Sat 03:22:02 AM 51.6570 -8.5650 83° East 473 544 36,000  Climbing FlightAware ADS-B
Sat 03:22:18 AM 51.6584 -8.4966 83° East 442 509 34,500 -2,647 Descending FlightAware UK
Sat 03:22:36 AM 51.6628 -8.4337 84° East 442 509 34,500 2,045 Level FlightAware UK
Sat 03:23:02 AM 51.6730 -8.3420 84° East 473 544 36,000  Climbing FlightAware ADS-B
Sat 03:23:18 AM 51.6732 -8.2871 84° East 442 509 34,500  Descending FlightAware UK
Sat 03:23:42 AM 51.6830 -8.2040 84° East 472 543 36,000  Climbing FlightAware ADS-B
Sat 03:24:00 AM 51.6843 -8.1400 84° East 444 511 34,500 -2,500 Descending FlightAware UK
Sat 03:24:18 AM 51.6892 -8.0772 83° East 444 511 34,500  Level FlightAware UK
Sat 03:24:42 AM 51.6952 -7.9934 83° East 442 509 34,500  Level FlightAware UK
Sat 03:25:00 AM 51.6994 -7.9306 84° East 442 509 34,500 3,600 Level FlightAware UK
Sat 03:25:07 AM 51.7030 -7.9040 84° East 472 543 36,000  Climbing FlightAware ADS-B
Sat 03:25:24 AM 51.7048 -7.8469 84° East 442 509 34,500 -2,571 Descending FlightAware UK
Sat 03:25:42 AM 51.7088 -7.7840 84° East 442 509 34,500 3,913 Level FlightAware UK
Sat 03:25:47 AM 51.7120 -7.7630 84° East 472 543 36,000  Climbing FlightAware ADS-B
Sat 03:26:12 AM 51.7155 -7.6795 84° East 442 509 34,500 -2,093 Descending FlightAware UK
Sat 03:26:30 AM 51.7196 -7.6167 84° East 442 509 34,500 4,500 Level FlightAware UK
Sat 03:26:32 AM 51.7220 -7.6100 84° East 472 543 36,000  Climbing FlightAware ADS-B
Sat 03:26:54 AM 51.7251 -7.5330 84° East 442 509 34,500  Descending FlightAware UK
Sat 03:27:12 AM 51.7310 -7.4690 84° East 472 543 36,000  Climbing FlightAware ADS-B
Sat 03:27:36 AM 51.7345 -7.3856 84° East 440 506 34,500  Descending FlightAware UK
Sat 03:27:52 AM 51.7390 -7.3310 84° East 473 544 36,000  Climbing FlightAware ADS-B
Sat 03:28:12 AM 51.7409 -7.2607 84° East 442 509 34,500 -2,368 Descending FlightAware UK
Sat 03:28:30 AM 51.7442 -7.1979 85° East 442 509 34,500 4,500 Level FlightAware UK
Sat 03:28:32 AM 51.7480 -7.1880 85° East 473 544 36,000 -1,333 Climbing FlightAware ADS-B
Sat 03:28:48 AM 51.7480 -7.1342 85° East 446 513 34,100 -3,900 Descending FlightAware UK
Sat 03:29:12 AM 51.7530 -7.0498 84° East 448 516 33,400 1,655 Descending FlightAware UK
Sat 03:29:17 AM 51.7570 -7.0330 84° East 481 554 34,900 -1,750 Climbing FlightAware ADS-B
Sat 03:29:36 AM 51.7587 -6.9627 84° East 452 520 32,700 -4,054 Descending FlightAware UK
Sat 03:29:54 AM 51.7623 -6.8981 85° East 448 516 32,400 2,769 Descending FlightAware UK
Sat 03:30:02 AM 51.7670 -6.8670 85° East 481 554 33,900 -750 Climbing FlightAware ADS-B
Sat 03:30:18 AM 51.7673 -6.8128 85° East 444 511 32,100 -3,000 Descending FlightAware UK
Sat 03:30:42 AM 51.7719 -6.7286 85° East 438 504 31,900 3,250 Descending FlightAware UK
Sat 03:30:42 AM 51.7750 -6.7250 85° East 470 541 33,400 -714 Climbing FlightAware ADS-B
Sat 03:31:24 AM 51.7798 -6.5836 85° East 436 502 31,400 -533 Descending FlightAware UK
Sat 03:31:27 AM 51.7820 -6.5710 85° East 467 537 33,000  Climbing FlightAware ADS-B
Sat 03:31:42 AM 51.7800 -6.5213 85° East 440 506 31,400 -2,462 Descending FlightAware UK
Sat 03:32:06 AM 51.7766 -6.4366 94° East 444 511 31,400 3,840 Level FlightAware UK
Sat 03:32:07 AM 51.7800 -6.4340 94° East 473 544 33,000 333 Climbing FlightAware ADS-B
Sat 03:32:24 AM 51.7737 -6.3726 94° East 440 506 31,500 -2,571 Descending FlightAware UK
Sat 03:32:42 AM 51.7707 -6.3099 94° East 436 502 31,500 3,913 Level FlightAware UK
Sat 03:32:47 AM 51.7740 -6.2930 94° East 465 535 33,000  Climbing FlightAware ADS-B
Sat 03:33:06 AM 51.7670 -6.2271 94° East 432 497 31,500 -2,432 Descending FlightAware UK
Sat 03:33:24 AM 51.7645 -6.1654 94° East 432 497 31,500 3,462 Level FlightAware UK
Sat 03:33:32 AM 51.7680 -6.1360 94° East 461 531 33,000  Climbing FlightAware ADS-B
Sat 03:33:48 AM 51.7611 -6.0836 94° East 432 497 31,500  Descending FlightAware UK
Sat 03:34:12 AM 51.7620 -6.0000 94° East 462 532 33,000  Climbing FlightAware ADS-B
Sat 03:34:30 AM 51.7554 -5.9403 94° East 434 499 31,500 -2,143 Descending FlightAware UK
Sat 03:34:54 AM 51.7520 -5.8581 94° East 434 499 31,500 3,333 Level FlightAware UK
Sat 03:34:57 AM 51.7560 -5.8460 94° East 463 533 33,000  Climbing FlightAware ADS-B
Sat 03:35:12 AM 51.7494 -5.7963 94° East 436 502 31,500  Descending FlightAware UK
Sat 03:35:37 AM 51.7490 -5.7060 94° East 463 533 33,000  Climbing FlightAware ADS-B
Sat 03:35:54 AM 51.7429 -5.6523 94° East 440 506 31,500  Descending FlightAware UK
Sat 03:36:17 AM 51.7430 -5.5690 94° East 462 532 33,000  Climbing FlightAware ADS-B
Sat 03:36:36 AM 51.7361 -5.5080 94° East 438 504 31,500 -2,432 Descending FlightAware UK
Sat 03:36:54 AM 51.7333 -5.4463 94° East 438 504 31,500 3,462 Level FlightAware UK
Sat 03:37:02 AM 51.7360 -5.4100 94° East 461 531 33,000  Climbing FlightAware ADS-B
Sat 03:37:18 AM 51.7295 -5.3634 94° East 440 506 31,500 -2,647 Descending FlightAware UK
Sat 03:37:36 AM 51.7265 -5.3019 94° East 438 504 31,500 3,750 Level FlightAware UK
Sat 03:37:42 AM 51.7300 -5.2810 94° East 459 528 33,000  Climbing FlightAware ADS-B
Sat 03:38:00 AM 51.7225 -5.2203 94° East 436 502 31,500 -2,143 Descending FlightAware UK
Sat 03:38:24 AM 51.7183 -5.1388 95° East 436 502 31,500 3,333 Level FlightAware UK
Sat 03:38:27 AM 51.7220 -5.1250 95° East 458 527 33,000 -1,000 Climbing FlightAware ADS-B
Sat 03:39:06 AM 51.7108 -4.9956 95° East 448 516 30,800 -900 Descending FlightAware UK
Sat 03:39:07 AM 51.7150 -4.9870 95° East 467 537 32,400 -667 Climbing FlightAware ADS-B
Sat 03:39:24 AM 51.7074 -4.9335 95° East 450 518 30,600 -900 Descending FlightAware UK
Sat 03:39:47 AM 51.7070 -4.8480 95° East 470 541 31,800 -1,000 Climbing FlightAware ADS-B
Sat 03:39:48 AM 51.7029 -4.8491 95° East 452 520 30,200 -5,400 Descending FlightAware UK
Sat 03:40:07 AM 51.6994 -4.7855 95° East 452 520 30,000 -811 Descending FlightAware UK
Sat 03:40:25 AM 51.6960 -4.7226 95° East 454 522 29,700 2,880 Descending FlightAware UK
Sat 03:40:32 AM 51.6990 -4.6930 95° East 471 542 31,200 1,660 Climbing FlightAware ADS-B
Sat 03:41:12 AM 51.6920 -4.5540 95° East 465 535 31,000 -2,488 Descending FlightAware ADS-B
Sat 03:41:13 AM 51.6869 -4.5553 95° East 450 518 29,500 -5,053 Descending FlightAware UK
Sat 03:41:31 AM 51.6835 -4.4932 95° East 448 516 29,400 -143 Descending FlightAware UK
Sat 03:41:55 AM 51.6791 -4.4113 95° East 448 516 29,400 3,692 Level FlightAware UK
Sat 03:41:57 AM 51.6830 -4.3960 95° East 463 533 31,000 333 Climbing FlightAware ADS-B
Sat 03:42:13 AM 51.6757 -4.3500 95° East 450 518 29,500 -2,647 Descending FlightAware UK
Sat 03:42:31 AM 51.6723 -4.2880 95° East 454 522 29,500 3,750 Level FlightAware UK
Sat 03:42:37 AM 51.6760 -4.2580 95° East 468 539 31,000  Climbing FlightAware ADS-B
Sat 03:42:55 AM 51.6674 -4.2042 95° East 454 522 29,500 -2,500 Descending FlightAware UK
Sat 03:43:13 AM 51.6637 -4.1424 96° East 454 522 29,500 4,091 Level FlightAware UK
Sat 03:43:17 AM 51.6670 -4.1210 96° East 470 541 31,000  Climbing FlightAware ADS-B
Sat 03:43:37 AM 51.6586 -4.0582 96° East 458 527 29,500  Descending FlightAware UK
Sat 03:44:02 AM 51.6580 -3.9610 96° East 471 542 31,000 -286 Climbing FlightAware ADS-B
Sat 03:44:19 AM 51.6497 -3.9119 96° East 458 527 29,300 -3,257 Descending FlightAware UK
Sat 03:44:37 AM 51.6458 -3.8495 96° East 454 522 29,100 3,391 Descending FlightAware UK
Sat 03:44:42 AM 51.6500 -3.8230 96° East 464 534 30,600 -1,000 Climbing FlightAware ADS-B
Sat 03:45:01 AM 51.6407 -3.7676 96° East 452 520 28,700 -1,250 Descending FlightAware UK
Sat 03:45:06 AM 51.6445 -3.7380 96° East 461 531 30,100 -1,500 Climbing FlightAware ADS-B
Sat 03:45:25 AM 51.6357 -3.6870 96° East 446 513 28,100 -3,349 Descending FlightAware UK
Sat 03:45:49 AM 51.6306 -3.6058 96° East 444 511 27,700 1,143 Descending FlightAware UK
Sat 03:46:07 AM 51.6320 -3.5380 96° East 449 517 28,900 1,297 Climbing FlightAware ADS-B
Sat 03:46:26 AM 51.6276 -3.4693 96° East 446 513 28,500 -3,429 Descending FlightAware ADS-B
Sat 03:46:49 AM 51.6178 -3.4079 96° East 436 502 26,500 -1,161 Descending FlightAware UK
Sat 03:46:57 AM 51.6211 -3.3681 96° East 446 513 27,900 -1,000 Climbing FlightAware ADS-B
Sat 03:47:13 AM 51.6128 -3.3304 96° East 434 499 26,100 -3,882 Descending FlightAware UK
Sat 03:47:31 AM 51.6078 -3.2728 98° East 432 497 25,700 3,789 Descending FlightAware UK
Sat 03:47:32 AM 51.6130 -3.2640 98° East 435 501 27,300 5,571 Climbing FlightAware ADS-B
Sat 03:47:45 AM 51.6079 -3.2166 100° East 436 502 27,000 -3,512 Descending FlightAware ADS-B
Sat 03:48:13 AM 51.5913 -3.1398 100° East 426 490 24,900 -1,171 Descending FlightAware UK
Sat 03:48:26 AM 51.5911 -3.0855 100° East 431 496 26,200 -1,000 Climbing FlightAware ADS-B
Sat 03:48:49 AM 51.5761 -3.0277 100° East 422 486 24,300 -968 Descending FlightAware UK
Sat 03:48:57 AM 51.5790 -2.9990 100° East 426 490 25,700 6,500 Climbing FlightAware ADS-B
Sat 03:49:01 AM 51.5768 -2.9787 100° East 427 491 25,600 -4,500 Descending FlightAware ADS-B
Sat 03:49:25 AM 51.5612 -2.9166 100° East 418 481 23,600 -1,125 Descending FlightAware UK
Sat 03:49:33 AM 51.5638 -2.8804 100° East 422 486 25,000 -1,000 Climbing FlightAware ADS-B
Sat 03:49:49 AM 51.5514 -2.8433 100° East 416 479 23,200 -900 Descending FlightAware UK
Sat 03:50:13 AM 51.5475 -2.7576 100° East 416 479 24,400 1,067 Climbing FlightAware ADS-B
Sat 03:50:34 AM 51.5369 -2.6941 105° East 417 480 24,000 -3,286 Descending FlightAware ADS-B
Sat 03:50:55 AM 51.5167 -2.6485 105° East 408 470 22,100 -811 Descending FlightAware UK
Sat 03:51:11 AM 51.5126 -2.5899 105° East 412 474 23,500 1,174 Climbing FlightAware ADS-B
Sat 03:51:41 AM 51.4927 -2.5034 110° East 408 470 23,000 -2,824 Descending FlightAware ADS-B
Sat 03:52:02 AM 51.4733 -2.4593 110° East 402 463 21,100 -1,000 Descending FlightAware UK
Sat 03:52:11 AM 51.4731 -2.4174 110° East 405 466 22,500 -828 Climbing FlightAware ADS-B
Sat 03:52:31 AM 51.4543 -2.3755 110° East 400 460 20,700 -774 Descending FlightAware UK
Sat 03:52:42 AM 51.4538 -2.3310 110° East 402 463 22,100 -968 Climbing FlightAware ADS-B
Sat 03:53:02 AM 51.4352 -2.2916 110° East 398 458 20,200 -968 Descending FlightAware UK
Sat 03:53:13 AM 51.4345 -2.2459 110° East 399 459 21,600 -800 Climbing FlightAware ADS-B
Sat 03:53:32 AM 51.4164 -2.2087 110° East 400 460 19,800 -774 Descending FlightAware UK
Sat 03:53:44 AM 51.4151 -2.1607 110° East 392 451 21,200 2,483 Climbing FlightAware ADS-B
Sat 03:54:01 AM 51.4050 -2.1158 110° East 388 447 21,000 -1,154 Descending FlightAware ADS-B
Sat 03:54:10 AM 51.3999 -2.0890 107° East 384 442 20,700 -2,182 Descending FlightAware ADS-B
Sat 03:54:23 AM 51.3951 -2.0543 102° East 381 438 20,200 -2,357 Descending FlightAware ADS-B
Sat 03:54:38 AM 51.3911 -2.0116 99° East 378 435 19,600 -5,091 Descending FlightAware ADS-B
Sat 03:54:56 AM 51.3830 -1.9783 99° East 384 442 17,400 -2,129 Descending FlightAware UK
Sat 03:55:09 AM 51.3885 -1.9274 99° East 372 428 18,500 -2,000 Climbing FlightAware ADS-B
Sat 03:55:26 AM 51.3807 -1.8954 99° East 374 430 16,400 -2,200 Descending FlightAware UK
Sat 03:55:39 AM 51.3863 -1.8433 99° East 369 425 17,400 -2,333 Climbing FlightAware ADS-B
Sat 03:56:02 AM 51.3779 -1.7977 99° East 368 423 15,000 -2,323 Descending FlightAware UK
Sat 03:56:10 AM 51.3839 -1.7601 99° East 358 412 16,200 -2,800 Climbing FlightAware ADS-B
Sat 03:56:32 AM 51.3757 -1.7188 99° East 364 419 13,600 -2,710 Descending FlightAware UK
Sat 03:56:41 AM 51.3818 -1.6794 99° East 353 406 14,800 -2,000 Climbing FlightAware ADS-B
Sat 03:56:56 AM 51.3742 -1.6564 99° East 360 414 12,800 -4,182 Descending FlightAware UK
Sat 03:57:14 AM 51.3731 -1.6103 92° East 352 405 12,500 3,429 Descending FlightAware UK
Sat 03:57:17 AM 51.3796 -1.5865 92° East 342 394 14,000  Climbing FlightAware ADS-B
Sat 03:57:32 AM 51.3714 -1.5653 92° East 350 403 12,500  Descending FlightAware UK
Sat 03:57:35 AM 51.3771 -1.5412 92° East 343 395 14,000  Climbing FlightAware ADS-B
Sat 03:57:50 AM 51.3657 -1.5204 92° East 350 403 12,500  Descending FlightAware UK
Sat 03:58:07 AM 51.3669 -1.4631 92° East 345 397 14,000  Climbing FlightAware ADS-B
Sat 03:58:26 AM 51.3527 -1.4307 92° East 350 403 12,500  Descending FlightAware UK
Sat 03:58:37 AM 51.3559 -1.3887 92° East 344 396 14,000 1,902 Climbing FlightAware ADS-B
Sat 03:59:07 AM 51.3446 -1.3139 104° East 341 392 13,800 -2,571 Descending FlightAware ADS-B
Sat 03:59:26 AM 51.3301 -1.2830 104° East 346 398 11,900 -1,355 Descending FlightAware UK
Sat 03:59:38 AM 51.3336 -1.2398 104° East 338 389 13,100 -1,600 Climbing FlightAware ADS-B
Sat 03:59:56 AM 51.3193 -1.2104 104° East 342 394 11,100 -1,750 Descending FlightAware UK
Sat 04:00:02 AM 51.3249 -1.1800 104° East 333 383 12,400 2,500 Climbing FlightAware ADS-B
Sat 04:00:20 AM 51.3214 -1.1385 98° East 328 377 12,100 -3,333 Descending FlightAware ADS-B
Sat 04:00:38 AM 51.3129 -1.1094 98° East 336 387 10,400 -600 Descending FlightAware UK
Sat 04:00:50 AM 51.3200 -1.0664 98° East 324 373 11,800 1,143 Climbing FlightAware ADS-B
Sat 04:01:20 AM 51.3192 -0.9958 91° East 312 359 11,200 -984 Descending FlightAware ADS-B
Sat 04:01:51 AM 51.3185 -0.9270 91° East 291 335 10,800 -2,625 Descending FlightAware ADS-B
Sat 04:02:08 AM 51.3103 -0.9055 91° East 292 336 9,100 -800 Descending FlightAware UK
Sat 04:02:21 AM 51.3180 -0.8640 91° East 277 319 10,400 -1,200 Climbing FlightAware ADS-B
Sat 04:02:38 AM 51.3099 -0.8446 91° East 286 329 8,500 -1,200 Descending FlightAware UK
Sat 04:02:41 AM 51.3178 -0.8221 91° East 273 314 10,000 4,000 Climbing FlightAware ADS-B
Sat 04:02:56 AM 51.3178 -0.7921 90° East 271 312 9,700 -1,161 Descending FlightAware ADS-B
Sat 04:03:12 AM 51.3177 -0.7620 90° East 265 305 9,400 -774 Descending FlightAware ADS-B
Sat 04:03:27 AM 51.3177 -0.7332 90° East 258 297 9,300 -621 Descending FlightAware ADS-B
Sat 04:03:41 AM 51.3175 -0.7071 91° East 250 288 9,100 -800 Descending FlightAware ADS-B
Sat 04:03:57 AM 51.3171 -0.6779 91° East 244 281 8,900 -938 Descending FlightAware ADS-B
Sat 04:04:13 AM 51.3170 -0.6491 90° East 240 276 8,600 -968 Descending FlightAware ADS-B
Sat 04:04:28 AM 51.3166 -0.6226 91° East 237 273 8,400 -1,000 Descending FlightAware ADS-B
Sat 04:04:43 AM 51.3161 -0.5962 92° East 236 272 8,100 -774 Descending FlightAware ADS-B
Sat 04:04:59 AM 51.3158 -0.5689 91° East 234 269 8,000 -194 Descending FlightAware ADS-B
Sat 04:05:14 AM 51.3156 -0.5428 91° East 237 273 8,000  Level FlightAware ADS-B
Sat 04:05:25 AM 51.3152 -0.5233 92° East 238 274 8,000  Level FlightAware ADS-B
Sat 04:05:40 AM 51.3150 -0.4958 91° East 238 274 8,000  Level FlightAware ADS-B
Sat 04:05:54 AM 51.3147 -0.4723 91° East 239 275 8,000  Level FlightAware ADS-B
Sat 04:06:08 AM 51.3144 -0.4475 91° East 238 274 8,000  Level FlightAware ADS-B
Sat 04:06:14 AM 51.3142 -0.4367 92° East 237 273 8,000  Level FlightAware ADS-B
Sat 04:06:19 AM 51.3147 -0.4285 84° East 236 272 8,000  Level FlightAware ADS-B
Sat 04:06:26 AM 51.3170 -0.4173 72° East 235 270 8,000  Level FlightAware ADS-B
Sat 04:06:29 AM 51.3187 -0.4122 62° Northeast 234 269 8,000  Level FlightAware ADS-B
Sat 04:06:34 AM 51.3218 -0.4058 52° Northeast 234 269 8,000  Level FlightAware ADS-B
Sat 04:06:38 AM 51.3247 -0.4014 44° Northeast 235 270 8,000  Level FlightAware ADS-B
Sat 04:06:42 AM 51.3284 -0.3971 36° Northeast 236 272 8,000  Level FlightAware ADS-B
Sat 04:06:45 AM 51.3319 -0.3941 28° Northeast 236 272 8,000  Level FlightAware ADS-B
Sat 04:06:49 AM 51.3360 -0.3919 19° North 237 273 8,000  Level FlightAware ADS-B
Sat 04:06:53 AM 51.3401 -0.3905 12° North 237 273 8,000  Level FlightAware ADS-B
Sat 04:06:59 AM 51.3461 -0.3902 North 237 273 8,000  Level FlightAware ADS-B
Sat 04:07:12 AM 51.3602 -0.3923 355° North 236 272 8,000  Level FlightAware ADS-B
Sat 04:07:27 AM 51.3767 -0.3947 355° North 237 273 8,000 -600 Level FlightAware ADS-B
Sat 04:07:42 AM 51.3933 -0.3967 356° North 236 272 7,700 -900 Descending FlightAware ADS-B
Sat 04:07:47 AM 51.3992 -0.3976 355° North 234 269 7,700 -667 Level FlightAware ADS-B
Sat 04:07:51 AM 51.4028 -0.3990 346° North 234 269 7,600 -1,200 Descending FlightAware ADS-B
Sat 04:07:57 AM 51.4089 -0.4029 338° Northwest 234 269 7,500 -545 Descending FlightAware ADS-B
Sat 04:08:02 AM 51.4133 -0.4079 325° Northwest 233 268 7,500 -750 Level FlightAware ADS-B
Sat 04:08:05 AM 51.4160 -0.4120 317° Northwest 234 269 7,400 -857 Descending FlightAware ADS-B
Sat 04:08:09 AM 51.4184 -0.4168 309° West 235 270 7,400 -750 Level FlightAware ADS-B
Sat 04:08:13 AM 51.4206 -0.4228 300° West 237 273 7,300 -600 Descending FlightAware ADS-B
Sat 04:08:19 AM 51.4229 -0.4324 291° West 238 274 7,300 -600 Level FlightAware ADS-B
Sat 04:08:23 AM 51.4236 -0.4386 280° West 240 276 7,200 -857 Descending FlightAware ADS-B
Sat 04:08:26 AM 51.4237 -0.4449 271° West 242 278 7,200 -857 Level FlightAware ADS-B
Sat 04:08:30 AM 51.4234 -0.4525 266° West 243 280 7,100 -857 Descending FlightAware ADS-B
Sat 04:08:33 AM 51.4227 -0.4578 258° West 245 282 7,100 -750 Level FlightAware ADS-B
Sat 04:08:38 AM 51.4211 -0.4658 252° West 245 282 7,000 -300 Descending FlightAware ADS-B
Sat 04:08:53 AM 51.4150 -0.4915 249° West 246 283 7,000 -200 Level FlightAware ADS-B
Sat 04:09:08 AM 51.4090 -0.5174 250° West 247 284 6,900 -581 Descending FlightAware ADS-B
Sat 04:09:24 AM 51.4031 -0.5438 250° West 245 282 6,700 -828 Descending FlightAware ADS-B
Sat 04:09:37 AM 51.3980 -0.5667 250° West 244 281 6,500 -1,059 Descending FlightAware ADS-B
Sat 04:09:41 AM 51.3969 -0.5728 254° West 244 281 6,400 -857 Descending FlightAware ADS-B
Sat 04:09:44 AM 51.3964 -0.5791 263° West 243 280 6,400 -857 Level FlightAware ADS-B
Sat 04:09:48 AM 51.3962 -0.5861 267° West 243 280 6,300 -1,000 Descending FlightAware ADS-B
Sat 04:10:02 AM 51.3966 -0.6120 271° West 245 282 6,100 -889 Descending FlightAware ADS-B
Sat 04:10:15 AM 51.3968 -0.6350 271° West 243 280 5,900 -1,034 Descending FlightAware ADS-B
Sat 04:10:31 AM 51.3968 -0.6626 270° West 242 278 5,600 -968 Descending FlightAware ADS-B
Sat 04:10:46 AM 51.3968 -0.6894 270° West 241 277 5,400 -400 Descending FlightAware ADS-B
Sat 04:11:01 AM 51.3968 -0.7163 270° West 241 277 5,400  Level FlightAware ADS-B
Sat 04:11:16 AM 51.3969 -0.7431 270° West 242 278 5,400  Level FlightAware ADS-B
Sat 04:11:31 AM 51.3969 -0.7703 270° West 242 278 5,400  Level FlightAware ADS-B
Sat 04:11:46 AM 51.3969 -0.7977 270° West 241 277 5,400 -214 Level FlightAware ADS-B
Sat 04:11:59 AM 51.3971 -0.8197 271° West 238 274 5,300 -333 Descending FlightAware ADS-B
Sat 04:12:04 AM 51.3973 -0.8280 272° West 236 272 5,300 -545 Level FlightAware ADS-B
Sat 04:12:10 AM 51.3983 -0.8390 278° West 233 268 5,200 -818 Descending FlightAware ADS-B
Sat 04:12:26 AM 51.4021 -0.8644 284° West 222 255 5,000 -750 Descending FlightAware ADS-B
Sat 04:12:42 AM 51.4062 -0.8897 285° West 213 245 4,800 -857 Descending FlightAware ADS-B
Sat 04:12:47 AM 51.4076 -0.8977 286° West 210 242 4,700 -667 Descending FlightAware ADS-B
Sat 04:12:51 AM 51.4086 -0.9026 288° West 208 239 4,700 -750 Level FlightAware ADS-B
Sat 04:12:55 AM 51.4102 -0.9078 296° West 204 235 4,600 -857 Descending FlightAware ADS-B
Sat 04:12:58 AM 51.4119 -0.9117 305° West 201 231 4,600 -1,000 Level FlightAware ADS-B
Sat 04:13:01 AM 51.4138 -0.9151 312° West 198 228 4,500 -1,000 Descending FlightAware ADS-B
Sat 04:13:04 AM 51.4158 -0.9180 318° Northwest 194 223 4,500 -750 Level FlightAware ADS-B
Sat 04:13:09 AM 51.4198 -0.9215 332° Northwest 189 217 4,400 -750 Descending FlightAware ADS-B
Sat 04:13:12 AM 51.4225 -0.9231 340° North 187 215 4,400 -750 Level FlightAware ADS-B
Sat 04:13:17 AM 51.4261 -0.9242 349° North 186 214 4,300 -667 Descending FlightAware ADS-B
Sat 04:13:21 AM 51.4299 -0.9251 352° North 185 213 4,300 -600 Level FlightAware ADS-B
Sat 04:13:37 AM 51.4431 -0.9270 355° North 187 215 4,100 -800 Descending FlightAware ADS-B
Sat 04:13:51 AM 51.4555 -0.9282 357° North 184 212 3,900 -600 Descending FlightAware ADS-B
Sat 04:13:57 AM 51.4603 -0.9263 14° North 182 209 3,900 -462 Level FlightAware ADS-B
Sat 04:14:04 AM 51.4653 -0.9212 33° Northeast 178 205 3,800 -600 Descending FlightAware ADS-B
Sat 04:14:07 AM 51.4672 -0.9179 47° Northeast 176 203 3,800  Level FlightAware ADS-B
Sat 04:14:11 AM 51.4690 -0.9136 56° Northeast 176 203 3,800  Level FlightAware ADS-B
Sat 04:14:27 AM 51.4750 -0.8959 61° Northeast 177 204 3,800 -333 Level FlightAware ADS-B
Sat 04:14:47 AM 51.4833 -0.8731 60° Northeast 176 203 3,600 -522 Descending FlightAware ADS-B
Sat 04:14:50 AM 51.4843 -0.8695 66° East 174 200 3,600  Level FlightAware ADS-B
Sat 04:14:53 AM 51.4854 -0.8655 66° East 175 201 3,600  Level FlightAware ADS-B
Sat 04:14:58 AM 51.4861 -0.8604 78° East 173 199 3,600 -667 Level FlightAware ADS-B
Sat 04:15:02 AM 51.4864 -0.8546 85° East 172 198 3,500 -750 Descending FlightAware ADS-B
Sat 04:15:06 AM 51.4865 -0.8501 88° East 171 197 3,500 -353 Level FlightAware ADS-B
Sat 04:15:19 AM 51.4862 -0.8330 92° East 173 199 3,400 -300 Descending FlightAware ADS-B
Sat 04:15:26 AM 51.4862 -0.8238 90° East 173 199 3,400 -375 Level FlightAware ADS-B
Sat 04:15:35 AM 51.4866 -0.8123 87° East 170 196 3,300 -600 Descending FlightAware ADS-B
Sat 04:15:46 AM 51.4867 -0.7986 89° East 168 193 3,200 -500 Descending FlightAware ADS-B
Sat 04:15:59 AM 51.4869 -0.7831 89° East 168 193 3,100 -500 Descending FlightAware ADS-B
Sat 04:16:10 AM 51.4871 -0.7696 89° East 167 192 3,000 -462 Descending FlightAware ADS-B
Sat 04:16:25 AM 51.4872 -0.7507 90° East 167 192 2,900 -414 Descending FlightAware ADS-B
Sat 04:16:39 AM 51.4874 -0.7327 89° East 167 192 2,800 -400 Descending FlightAware ADS-B
Sat 04:16:55 AM 51.4876 -0.7138 89° East 163 188 2,700 -522 Descending FlightAware ADS-B
Sat 04:17:02 AM 51.4876 -0.7047 90° East 160 184 2,600 -818 Descending FlightAware ADS-B
Sat 04:17:17 AM 51.4878 -0.6872 89° East 155 178 2,400 -800 Descending FlightAware ADS-B
Sat 04:17:32 AM 51.4879 -0.6704 89° East 149 171 2,200 -889 Descending FlightAware ADS-B
Sat 04:17:44 AM 51.4881 -0.6573 89° East 149 171 2,000 -889 Descending FlightAware ADS-B
Sat 04:17:59 AM 51.4883 -0.6412 89° East 150 173 1,800 -800 Descending FlightAware ADS-B
Sat 04:18:14 AM 51.4884 -0.6242 89° East 146 168 1,600 -750 Descending FlightAware ADS-B
Sat 04:18:23 AM 51.4885 -0.6151 89° East 150 173 1,500 -900 Descending FlightAware ADS-B
Sat 04:18:34 AM 51.4886 -0.6020 89° East 150 173 1,300 -889 Descending FlightAware ADS-B
Sat 04:18:50 AM 51.4886 -0.5850 90° East 146 168 1,100 -857 Descending FlightAware ADS-B
Sat 04:19:16 AM 51.4889 -0.5584 89° East 134 154 700 -779 Descending FlightAware ADS-B
Sat 04:20:07 AM 51.4890 -0.5130 90° East 131 151 100 -706 Descending FlightAware ADS-B

Login

Don't have an account? Register now (free) for customized features, flight alerts, and more!